Marysville/Beale AFB, California
Current Conditions -  °F | °C
As of 10:13 PM on Sunday 21 Dec 2014 (Local Time) from KBAB Reporting Station
Moderate Fog Moderate Fog  
Wind Chill: 54°   Ceiling: 100
Heat Index: 54°   Visibility: 0mi
Dew Point: 54°   Wind: 7mph
Humidity: 100%   Direction: 10°N
Pressure: 30.27"   Gusts: NA
Location:  39.13°N, 121.45°W
Report Text: KBAB 220613Z AUTO 01006KT M1/4SM R15/0500FT FG VV001 12/12 A3027 RMK AO2
Loading
Personal Weather Stations






























Interactive Weather Map New forecast layout! Learn more

10-Day Weather Forecast

Advertisements
Track Severe Weather on mobile